createdAt,value
2023-04-18T00:00:52.993Z,7.51
2023-04-18T00:03:21.225Z,7.50
2023-04-18T00:05:47.720Z,7.47
2023-04-18T00:08:13.814Z,7.46
2023-04-18T00:10:39.988Z,7.45
2023-04-18T00:13:06.783Z,7.44
2023-04-18T00:15:34.747Z,7.43
2023-04-18T00:18:03.295Z,7.43
2023-04-18T00:20:29.933Z,7.41
2023-04-18T00:22:56.051Z,7.39
2023-04-18T00:25:22.135Z,7.36
2023-04-18T00:27:48.264Z,7.34
2023-04-18T00:30:14.803Z,7.32
2023-04-18T00:32:40.932Z,7.28
2023-04-18T00:35:07.037Z,7.25
2023-04-18T00:37:33.138Z,7.21
2023-04-18T00:39:59.260Z,7.18
2023-04-18T00:42:27.197Z,7.16
2023-04-18T00:44:53.297Z,7.12
2023-04-18T00:47:19.509Z,7.07
2023-04-18T00:49:45.676Z,7.05
2023-04-18T00:52:11.815Z,7.02
2023-04-18T00:54:37.857Z,7.00
2023-04-18T00:57:04.148Z,6.97
2023-04-18T00:59:30.518Z,6.95
2023-04-18T01:01:56.705Z,6.93
2023-04-18T01:04:23.007Z,6.90
2023-04-18T01:06:49.217Z,6.87
2023-04-18T01:09:15.262Z,6.86
2023-04-18T01:11:41.514Z,6.84
2023-04-18T01:14:07.614Z,6.82
2023-04-18T01:16:33.749Z,6.81
2023-04-18T01:18:59.911Z,6.80
2023-04-18T01:21:26.300Z,6.78
2023-04-18T01:23:52.388Z,6.77
2023-04-18T01:26:18.534Z,6.76
2023-04-18T01:28:44.707Z,6.74
2023-04-18T01:31:10.858Z,6.74
2023-04-18T01:33:37.108Z,6.72
2023-04-18T01:36:03.197Z,6.71
2023-04-18T01:38:29.551Z,6.69
2023-04-18T01:40:55.711Z,6.70
2023-04-18T01:43:21.801Z,6.69
2023-04-18T01:45:47.896Z,6.71
2023-04-18T01:48:13.984Z,6.69
2023-04-18T01:50:40.099Z,6.68
2023-04-18T01:53:06.147Z,6.67
2023-04-18T01:55:32.279Z,6.64
2023-04-18T01:57:58.405Z,6.62
2023-04-18T02:00:24.630Z,6.61
2023-04-18T02:02:50.883Z,6.60
2023-04-18T02:05:17.178Z,6.59
2023-04-18T02:07:43.370Z,6.58
2023-04-18T02:10:09.748Z,6.57
2023-04-18T02:12:35.831Z,6.57
2023-04-18T02:15:01.931Z,6.56
2023-04-18T02:17:28.250Z,6.55
2023-04-18T02:19:54.589Z,6.53
2023-04-18T02:22:20.664Z,6.52
2023-04-18T02:24:46.816Z,6.51
2023-04-18T02:27:12.944Z,6.51
2023-04-18T02:29:39.028Z,6.52
2023-04-18T02:32:05.291Z,6.50
2023-04-18T02:34:33.036Z,6.50
2023-04-18T02:36:59.141Z,6.49
2023-04-18T02:39:25.302Z,6.46
2023-04-18T02:41:51.381Z,6.44
2023-04-18T02:44:17.458Z,6.42
2023-04-18T02:46:43.529Z,6.39
2023-04-18T02:49:09.794Z,6.39
2023-04-18T02:51:35.954Z,6.38
2023-04-18T02:54:02.256Z,6.34
2023-04-18T02:56:28.420Z,6.32
2023-04-18T02:58:54.472Z,6.31
2023-04-18T03:01:20.608Z,6.30
2023-04-18T03:03:46.793Z,6.29
2023-04-18T03:06:12.926Z,6.30
2023-04-18T03:08:40.350Z,6.29
2023-04-18T03:11:06.594Z,6.28
2023-04-18T03:13:32.701Z,6.27
2023-04-18T03:15:58.992Z,6.27
2023-04-18T03:18:25.440Z,6.25
2023-04-18T03:20:51.641Z,6.27
2023-04-18T03:23:17.700Z,6.24
2023-04-18T03:25:43.806Z,6.23
2023-04-18T03:28:09.889Z,6.23
2023-04-18T03:30:35.987Z,6.21
2023-04-18T03:33:02.175Z,6.21
2023-04-18T03:35:28.297Z,6.19
2023-04-18T03:37:54.956Z,6.21
2023-04-18T03:40:21.063Z,6.21
2023-04-18T03:42:47.154Z,6.22
2023-04-18T03:45:13.431Z,6.22
2023-04-18T03:47:39.685Z,6.21
2023-04-18T03:50:05.792Z,6.21
2023-04-18T03:52:31.871Z,6.21
2023-04-18T03:54:58.009Z,6.20
2023-04-18T03:57:24.100Z,6.20
2023-04-18T03:59:50.482Z,6.19
2023-04-18T04:02:16.687Z,6.19
2023-04-18T04:04:42.959Z,6.18
2023-04-18T04:07:09.101Z,6.16
2023-04-18T04:09:35.252Z,6.17
2023-04-18T04:12:02.496Z,6.16
2023-04-18T04:14:28.656Z,6.17
2023-04-18T04:16:54.788Z,6.18
2023-04-18T04:19:20.854Z,6.18
2023-04-18T04:21:47.186Z,6.17
2023-04-18T04:24:13.495Z,6.19
2023-04-18T04:26:42.024Z,6.19
2023-04-18T04:29:09.980Z,6.19
2023-04-18T04:31:36.312Z,6.17
2023-04-18T04:34:04.215Z,6.16
2023-04-18T04:36:32.595Z,6.18
2023-04-18T04:38:58.888Z,6.16
2023-04-18T04:41:25.039Z,6.15
2023-04-18T04:43:52.432Z,6.12
2023-04-18T04:46:19.364Z,6.13
2023-04-18T04:48:45.532Z,6.15
2023-04-18T04:51:11.642Z,6.18
2023-04-18T04:53:38.103Z,6.19
2023-04-18T04:56:05.341Z,6.22
2023-04-18T04:58:31.425Z,6.23
2023-04-18T05:00:57.656Z,6.24
2023-04-18T05:03:24.085Z,6.25
2023-04-18T05:05:50.328Z,6.27
2023-04-18T05:08:16.549Z,6.29
2023-04-18T05:10:42.742Z,6.32
2023-04-18T05:13:09.001Z,6.51
2023-04-18T05:15:35.164Z,6.61
2023-04-18T05:18:01.301Z,6.61
2023-04-18T05:20:27.593Z,6.57
2023-04-18T05:22:54.013Z,6.55
2023-04-18T05:25:20.380Z,6.55
2023-04-18T05:27:46.493Z,6.56
2023-04-18T05:30:12.851Z,6.56
2023-04-18T05:32:39.258Z,6.57
2023-04-18T05:35:05.656Z,6.58
2023-04-18T05:37:31.840Z,6.59
2023-04-18T05:39:59.958Z,6.61
2023-04-18T05:42:26.805Z,6.62
2023-04-18T05:44:52.936Z,6.63
2023-04-18T05:47:19.024Z,6.64
2023-04-18T05:49:45.082Z,6.65
2023-04-18T05:52:11.292Z,6.65
2023-04-18T05:54:37.521Z,6.66
2023-04-18T05:57:04.770Z,6.66
2023-04-18T05:59:31.203Z,6.69
2023-04-18T06:01:57.383Z,6.69
2023-04-18T06:04:23.693Z,6.73
2023-04-18T06:06:49.948Z,6.79
2023-04-18T06:09:16.122Z,6.83
2023-04-18T06:11:42.192Z,6.88
2023-04-18T06:14:08.361Z,6.91
2023-04-18T06:16:34.565Z,6.96
2023-04-18T06:19:01.753Z,7.01
2023-04-18T06:21:28.072Z,7.04
2023-04-18T06:23:54.277Z,7.10
2023-04-18T06:26:20.422Z,7.21
2023-04-18T06:28:46.875Z,7.30
2023-04-18T06:31:13.001Z,7.37
2023-04-18T06:33:39.144Z,7.45
2023-04-18T06:36:06.631Z,7.52
2023-04-18T06:38:32.749Z,7.56
2023-04-18T06:40:58.860Z,7.61
2023-04-18T06:43:25.100Z,7.67
2023-04-18T06:45:51.267Z,7.74
2023-04-18T06:48:17.502Z,7.83
2023-04-18T06:50:44.168Z,7.88
2023-04-18T06:53:10.311Z,7.92
2023-04-18T06:55:36.447Z,7.99
2023-04-18T06:58:02.524Z,8.07
2023-04-18T07:00:28.599Z,8.14
2023-04-18T07:02:54.902Z,8.15
2023-04-18T07:05:21.422Z,8.16
2023-04-18T07:07:47.520Z,8.24
2023-04-18T07:10:13.580Z,8.34
2023-04-18T07:12:39.809Z,8.38
2023-04-18T07:15:05.904Z,8.44
2023-04-18T07:17:32.101Z,8.48
2023-04-18T07:19:58.601Z,8.54
2023-04-18T07:22:24.782Z,8.54
2023-04-18T07:24:50.857Z,8.50
2023-04-18T07:27:16.940Z,8.56
2023-04-18T07:29:43.096Z,8.67
2023-04-18T07:32:10.163Z,8.77
2023-04-18T07:34:36.905Z,8.86
2023-04-18T07:37:03.148Z,8.88
2023-04-18T07:39:31.161Z,8.93
2023-04-18T07:41:57.799Z,9.02
2023-04-18T07:44:24.612Z,9.10
2023-04-18T07:46:50.786Z,9.07
2023-04-18T07:49:16.972Z,9.06
2023-04-18T07:51:43.129Z,9.18
2023-04-18T07:54:10.441Z,9.35
2023-04-18T07:56:36.530Z,9.47
2023-04-18T07:59:02.659Z,9.52
2023-04-18T08:01:30.309Z,9.57
2023-04-18T08:04:00.938Z,9.60
2023-04-18T08:06:27.201Z,9.63
2023-04-18T08:08:53.271Z,9.54
2023-04-18T08:11:19.414Z,9.57
2023-04-18T08:13:45.688Z,9.72
2023-04-18T08:16:11.799Z,9.69
2023-04-18T08:18:38.152Z,9.62
2023-04-18T08:21:04.509Z,9.65
2023-04-18T08:23:30.675Z,9.62
2023-04-18T08:25:56.767Z,9.52
2023-04-18T08:28:22.890Z,9.49
2023-04-18T08:30:50.585Z,9.48
2023-04-18T08:33:16.716Z,9.60
2023-04-18T08:35:42.882Z,9.71
2023-04-18T08:38:09.011Z,9.78
2023-04-18T08:40:35.187Z,9.78
2023-04-18T08:43:01.860Z,9.81
2023-04-18T08:45:28.088Z,9.90
2023-04-18T08:47:55.278Z,9.91
2023-04-18T08:50:22.448Z,9.87
2023-04-18T08:52:49.891Z,9.86
2023-04-18T08:55:16.184Z,9.93
2023-04-18T08:57:42.665Z,9.99
2023-04-18T09:00:09.719Z,10.10
2023-04-18T09:02:41.714Z,10.16
2023-04-18T09:05:08.735Z,10.23
2023-04-18T09:07:34.874Z,10.27
2023-04-18T09:10:01.061Z,10.27
2023-04-18T09:12:27.177Z,10.36
2023-04-18T09:14:56.772Z,10.45
2023-04-18T09:17:22.871Z,10.38
2023-04-18T09:19:49.505Z,10.13
2023-04-18T09:22:16.305Z,9.98
2023-04-18T09:24:44.144Z,9.85
2023-04-18T09:27:10.260Z,9.71
2023-04-18T09:29:38.355Z,9.60
2023-04-18T09:32:05.140Z,9.66
2023-04-18T09:34:33.235Z,9.86
2023-04-18T09:36:59.347Z,10.10
2023-04-18T09:39:25.518Z,10.26
2023-04-18T09:41:51.574Z,10.32
2023-04-18T09:44:19.331Z,10.30
2023-04-18T09:46:47.179Z,10.27
2023-04-18T09:49:14.179Z,10.34
2023-04-18T09:51:41.380Z,10.42
2023-04-18T09:54:07.538Z,10.62
2023-04-18T09:56:33.664Z,10.84
2023-04-18T09:59:00.302Z,10.75
2023-04-18T10:01:26.594Z,10.72
2023-04-18T10:03:52.824Z,10.76
2023-04-18T10:06:18.978Z,10.63
2023-04-18T10:08:45.209Z,10.53
2023-04-18T10:11:11.286Z,10.53
2023-04-18T10:13:37.407Z,10.55
2023-04-18T10:16:04.011Z,10.54
2023-04-18T10:18:30.156Z,10.55
2023-04-18T10:20:56.437Z,10.57
2023-04-18T10:23:22.510Z,10.52
2023-04-18T10:25:48.810Z,10.55
2023-04-18T10:28:15.199Z,10.66
2023-04-18T10:30:41.633Z,10.78
2023-04-18T10:33:10.596Z,10.94
2023-04-18T10:35:44.414Z,10.99
2023-04-18T10:38:10.485Z,11.01
2023-04-18T10:40:36.589Z,11.04
2023-04-18T10:43:02.764Z,11.13
2023-04-18T10:45:35.643Z,11.24
2023-04-18T10:48:01.751Z,11.21
2023-04-18T10:50:27.923Z,11.28
2023-04-18T10:52:54.077Z,11.35
2023-04-18T10:55:20.328Z,11.39
2023-04-18T10:57:46.563Z,11.42
2023-04-18T11:00:13.193Z,11.46
2023-04-18T11:02:39.795Z,11.50
2023-04-18T11:05:06.092Z,11.51
2023-04-18T11:07:32.465Z,11.50
2023-04-18T11:09:58.651Z,11.44
2023-04-18T11:12:24.921Z,11.54
2023-04-18T11:14:51.958Z,11.63
2023-04-18T11:17:18.332Z,11.60
2023-04-18T11:19:44.796Z,11.59
2023-04-18T11:22:10.895Z,11.68
2023-04-18T11:24:37.046Z,11.78
2023-04-18T11:27:03.203Z,11.81
2023-04-18T11:29:29.292Z,11.82
2023-04-18T11:31:58.336Z,11.79
2023-04-18T11:34:25.063Z,11.77
2023-04-18T11:36:51.196Z,11.84
2023-04-18T11:39:17.515Z,11.90
2023-04-18T11:41:49.556Z,12.00
2023-04-18T11:44:15.793Z,12.07
2023-04-18T11:46:42.051Z,12.05
2023-04-18T11:49:08.146Z,11.90
2023-04-18T11:51:45.589Z,11.76
2023-04-18T11:54:12.821Z,11.69
2023-04-18T11:56:39.067Z,11.67
2023-04-18T11:59:05.125Z,11.69
2023-04-18T12:01:31.496Z,11.65
2023-04-18T12:03:57.796Z,11.61
2023-04-18T12:06:24.199Z,11.59
2023-04-18T12:08:51.225Z,11.55
2023-04-18T12:11:18.462Z,11.58
2023-04-18T12:13:44.634Z,11.61
2023-04-18T12:16:10.757Z,11.66
2023-04-18T12:18:36.949Z,11.65
2023-04-18T12:21:04.174Z,11.63
2023-04-18T12:23:30.354Z,11.55
2023-04-18T12:25:56.407Z,11.50
2023-04-18T12:28:22.468Z,11.50
2023-04-18T12:30:48.563Z,11.44
2023-04-18T12:33:14.887Z,11.45
2023-04-18T12:35:41.823Z,11.43
2023-04-18T12:38:08.084Z,11.45
2023-04-18T12:40:34.151Z,11.46
2023-04-18T12:43:02.163Z,11.50
2023-04-18T12:45:29.773Z,11.51
2023-04-18T12:47:55.968Z,11.54
2023-04-18T12:50:22.180Z,11.58
2023-04-18T12:52:48.307Z,11.64
2023-04-18T12:55:14.866Z,11.66
2023-04-18T12:57:41.419Z,11.67
2023-04-18T13:00:10.634Z,11.65
2023-04-18T13:02:38.029Z,11.55
2023-04-18T13:05:04.356Z,11.55
2023-04-18T13:07:31.011Z,11.65
2023-04-18T13:09:57.106Z,11.72
2023-04-18T13:12:23.801Z,11.75
2023-04-18T13:14:50.223Z,11.75
2023-04-18T13:17:16.289Z,11.80
2023-04-18T13:19:42.362Z,11.85
2023-04-18T13:22:08.429Z,11.91
2023-04-18T13:24:36.287Z,11.87
2023-04-18T13:27:09.470Z,11.86
2023-04-18T13:29:35.511Z,11.90
2023-04-18T13:32:01.634Z,11.92
2023-04-18T13:34:27.751Z,11.97
2023-04-18T13:36:53.798Z,12.01
2023-04-18T13:39:20.753Z,12.04
2023-04-18T13:41:46.984Z,12.07
2023-04-18T13:44:13.050Z,12.09
2023-04-18T13:46:39.146Z,12.14
2023-04-18T13:49:05.329Z,12.18
2023-04-18T13:51:31.508Z,12.24
2023-04-18T13:53:59.755Z,12.24
2023-04-18T13:56:25.887Z,12.21
2023-04-18T13:58:51.977Z,12.14
2023-04-18T14:01:18.732Z,12.08
2023-04-18T14:03:46.759Z,12.02
2023-04-18T14:06:13.083Z,11.99
2023-04-18T14:08:40.197Z,11.93
2023-04-18T14:11:06.449Z,11.89
2023-04-18T14:13:32.641Z,11.83
2023-04-18T14:15:59.501Z,11.76
2023-04-18T14:18:25.808Z,11.68
2023-04-18T14:20:51.951Z,11.60
2023-04-18T14:23:18.037Z,11.56
2023-04-18T14:25:44.287Z,11.55
2023-04-18T14:28:10.358Z,11.51
2023-04-18T14:30:36.669Z,11.45
2023-04-18T14:33:03.170Z,11.45
2023-04-18T14:35:29.427Z,11.41
2023-04-18T14:37:55.482Z,11.34
2023-04-18T14:40:21.687Z,11.31
2023-04-18T14:42:47.790Z,11.32
2023-04-18T14:45:15.501Z,11.28
2023-04-18T14:47:41.620Z,11.23
2023-04-18T14:50:08.007Z,11.17
2023-04-18T14:52:34.134Z,11.13
2023-04-18T14:55:00.232Z,11.13
2023-04-18T14:57:26.343Z,11.14
2023-04-18T14:59:54.115Z,11.12
2023-04-18T15:02:20.496Z,11.13
2023-04-18T15:04:46.974Z,11.12
2023-04-18T15:07:14.403Z,11.10
2023-04-18T15:09:40.673Z,11.11
2023-04-18T15:12:06.767Z,11.13
2023-04-18T15:14:33.131Z,11.11
2023-04-18T15:16:59.467Z,11.14
2023-04-18T15:19:25.717Z,11.12
2023-04-18T15:21:51.770Z,11.09
2023-04-18T15:24:17.926Z,11.07
2023-04-18T15:26:44.560Z,11.06
2023-04-18T15:29:10.694Z,11.02
2023-04-18T15:31:38.973Z,11.01
2023-04-18T15:34:05.271Z,10.97
2023-04-18T15:36:31.745Z,10.94
2023-04-18T15:38:57.896Z,10.89
2023-04-18T15:41:23.966Z,10.87
2023-04-18T15:43:50.033Z,10.82
2023-04-18T15:46:16.189Z,10.78
2023-04-18T15:48:42.322Z,10.76
2023-04-18T15:51:08.450Z,10.76
2023-04-18T15:53:34.577Z,10.75
2023-04-18T15:56:01.139Z,10.74
2023-04-18T15:58:29.426Z,10.70
2023-04-18T16:00:55.611Z,10.71
2023-04-18T16:03:23.122Z,10.71
2023-04-18T16:05:49.361Z,10.71
2023-04-18T16:08:15.534Z,10.71
2023-04-18T16:10:41.644Z,10.71
2023-04-18T16:13:07.688Z,10.70
2023-04-18T16:15:40.801Z,10.72
2023-04-18T16:18:06.894Z,10.69
2023-04-18T16:20:33.423Z,10.67
2023-04-18T16:22:59.549Z,10.66
2023-04-18T16:25:25.605Z,10.64
2023-04-18T16:27:51.689Z,10.63
2023-04-18T16:30:17.795Z,10.58
2023-04-18T16:32:43.892Z,10.55
2023-04-18T16:35:10.178Z,10.55
2023-04-18T16:37:36.354Z,10.54
2023-04-18T16:40:04.533Z,10.53
2023-04-18T16:42:30.587Z,10.51
2023-04-18T16:44:56.711Z,10.49
2023-04-18T16:47:22.810Z,10.47
2023-04-18T16:49:50.570Z,10.44
2023-04-18T16:52:17.269Z,10.44
2023-04-18T16:54:43.355Z,10.44
2023-04-18T16:57:09.524Z,10.42
2023-04-18T16:59:35.735Z,10.41
2023-04-18T17:02:02.206Z,10.36
2023-04-18T17:04:31.129Z,10.32
2023-04-18T17:06:57.483Z,10.29
2023-04-18T17:09:23.627Z,10.29
2023-04-18T17:11:49.905Z,10.29
2023-04-18T17:14:17.629Z,10.27
2023-04-18T17:16:44.031Z,10.28
2023-04-18T17:19:10.550Z,10.26
2023-04-18T17:21:36.871Z,10.24
2023-04-18T17:24:03.097Z,10.24
2023-04-18T17:26:29.124Z,10.21
2023-04-18T17:28:55.283Z,10.22
2023-04-18T17:31:21.621Z,10.19
2023-04-18T17:33:50.120Z,10.16
2023-04-18T17:36:16.254Z,10.14
2023-04-18T17:38:48.203Z,10.13
2023-04-18T17:41:14.471Z,10.14
2023-04-18T17:43:40.613Z,10.12
2023-04-18T17:46:06.913Z,10.08
2023-04-18T17:48:33.289Z,10.05
2023-04-18T17:50:59.746Z,9.99
2023-04-18T17:53:26.206Z,9.98
2023-04-18T17:55:52.308Z,9.95
2023-04-18T17:58:18.652Z,9.96
2023-04-18T18:00:44.867Z,9.97
2023-04-18T18:03:12.719Z,9.96
2023-04-18T18:05:39.105Z,9.92
2023-04-18T18:08:05.250Z,9.88
2023-04-18T18:10:31.998Z,9.87
2023-04-18T18:12:58.309Z,9.85
2023-04-18T18:15:24.520Z,9.82
2023-04-18T18:17:51.054Z,9.80
2023-04-18T18:20:17.526Z,9.78
2023-04-18T18:22:43.882Z,9.79
2023-04-18T18:25:10.419Z,9.72
2023-04-18T18:27:36.610Z,9.69
2023-04-18T18:30:02.704Z,9.64
2023-04-18T18:32:28.975Z,9.61
2023-04-18T18:34:55.371Z,9.62
2023-04-18T18:37:22.719Z,9.63
2023-04-18T18:39:51.825Z,9.64
2023-04-18T18:42:18.049Z,9.65
2023-04-18T18:44:44.722Z,9.66
2023-04-18T18:47:10.860Z,9.67
2023-04-18T18:49:37.015Z,9.67
2023-04-18T18:52:04.657Z,9.67
2023-04-18T18:54:31.052Z,9.65
2023-04-18T18:56:57.522Z,9.63
2023-04-18T18:59:24.031Z,9.61
2023-04-18T19:01:50.470Z,9.59
2023-04-18T19:04:17.929Z,9.58
2023-04-18T19:06:44.480Z,9.59
2023-04-18T19:09:10.967Z,9.61
2023-04-18T19:11:37.217Z,9.60
2023-04-18T19:14:03.464Z,9.59
2023-04-18T19:16:29.998Z,9.60
2023-04-18T19:18:56.390Z,9.58
2023-04-18T19:21:22.587Z,9.57
2023-04-18T19:23:48.750Z,9.56
2023-04-18T19:26:15.023Z,9.56
2023-04-18T19:28:41.255Z,9.57
2023-04-18T19:31:08.877Z,9.52
2023-04-18T19:33:35.240Z,9.46
2023-04-18T19:36:01.752Z,9.35
2023-04-18T19:38:28.398Z,9.24
2023-04-18T19:40:54.700Z,9.19
2023-04-18T19:43:21.096Z,9.15
2023-04-18T19:45:47.315Z,9.02
2023-04-18T19:48:13.646Z,8.97
2023-04-18T19:50:39.968Z,8.97
2023-04-18T19:53:06.220Z,8.95
2023-04-18T19:55:34.017Z,8.91
2023-04-18T19:58:00.285Z,8.86
2023-04-18T20:00:27.513Z,8.82
2023-04-18T20:02:54.156Z,8.83
2023-04-18T20:05:20.630Z,8.82
2023-04-18T20:07:47.343Z,8.81
2023-04-18T20:10:13.610Z,8.79
2023-04-18T20:12:39.862Z,8.73
2023-04-18T20:15:06.215Z,8.69
2023-04-18T20:17:33.816Z,8.64
2023-04-18T20:20:00.493Z,8.64
2023-04-18T20:22:26.652Z,8.60
2023-04-18T20:24:52.754Z,8.63
2023-04-18T20:27:21.970Z,8.67
2023-04-18T20:29:48.080Z,8.67
2023-04-18T20:32:14.262Z,8.64
2023-04-18T20:34:40.300Z,8.63
2023-04-18T20:37:09.367Z,8.65
2023-04-18T20:39:37.523Z,8.65
2023-04-18T20:42:03.713Z,8.61
2023-04-18T20:44:30.579Z,8.59
2023-04-18T20:46:57.306Z,8.57
2023-04-18T20:49:23.556Z,8.49
2023-04-18T20:51:49.598Z,8.38
2023-04-18T20:54:15.847Z,8.27
2023-04-18T20:56:42.244Z,8.22
2023-04-18T20:59:08.300Z,8.20
2023-04-18T21:01:36.918Z,8.21
2023-04-18T21:04:03.334Z,8.23
2023-04-18T21:06:30.285Z,8.23
2023-04-18T21:08:56.674Z,8.24
2023-04-18T21:11:23.063Z,8.23
2023-04-18T21:13:51.358Z,8.21
2023-04-18T21:16:17.679Z,8.19
2023-04-18T21:18:43.802Z,8.20
2023-04-18T21:21:11.017Z,8.20
2023-04-18T21:23:37.090Z,8.16
2023-04-18T21:26:03.140Z,8.16
2023-04-18T21:28:29.290Z,8.16
2023-04-18T21:30:55.609Z,8.15
2023-04-18T21:33:22.963Z,8.11
2023-04-18T21:35:49.326Z,8.07
2023-04-18T21:38:15.473Z,8.04
2023-04-18T21:40:41.564Z,8.04
2023-04-18T21:43:07.638Z,8.02
2023-04-18T21:45:33.791Z,7.99
2023-04-18T21:48:00.122Z,7.98
2023-04-18T21:50:26.311Z,7.95
2023-04-18T21:52:52.476Z,7.92
2023-04-18T21:55:18.545Z,7.90
2023-04-18T21:57:44.585Z,7.87
2023-04-18T22:00:10.814Z,7.85
2023-04-18T22:02:37.193Z,7.84
2023-04-18T22:05:03.427Z,7.83
2023-04-18T22:07:30.371Z,7.78
2023-04-18T22:09:58.935Z,7.75
2023-04-18T22:12:25.593Z,7.72
2023-04-18T22:14:52.132Z,7.70
2023-04-18T22:17:18.307Z,7.69
2023-04-18T22:19:44.516Z,7.65
2023-04-18T22:22:11.089Z,7.66
2023-04-18T22:24:37.199Z,7.66
2023-04-18T22:27:03.373Z,7.64
2023-04-18T22:29:29.466Z,7.63
2023-04-18T22:31:55.648Z,7.59
2023-04-18T22:34:21.777Z,7.58
2023-04-18T22:36:47.873Z,7.56
2023-04-18T22:39:13.925Z,7.55
2023-04-18T22:41:40.406Z,7.52
2023-04-18T22:44:06.595Z,7.47
2023-04-18T22:46:32.713Z,7.48
2023-04-18T22:48:58.990Z,7.49
2023-04-18T22:51:28.031Z,7.51
2023-04-18T22:53:54.094Z,7.52
2023-04-18T22:56:20.376Z,7.53
2023-04-18T22:58:46.442Z,7.54
2023-04-18T23:01:12.514Z,7.57
2023-04-18T23:03:38.851Z,7.58
2023-04-18T23:06:05.821Z,7.60
2023-04-18T23:08:31.941Z,7.61
2023-04-18T23:10:57.999Z,7.61
2023-04-18T23:13:24.078Z,7.63
2023-04-18T23:15:50.327Z,7.63
2023-04-18T23:18:16.397Z,7.67
2023-04-18T23:20:42.463Z,7.69
2023-04-18T23:23:08.605Z,7.71
2023-04-18T23:25:34.642Z,7.73
2023-04-18T23:28:00.778Z,7.77
2023-04-18T23:30:26.841Z,7.79
2023-04-18T23:32:53.202Z,7.79
2023-04-18T23:35:19.358Z,7.81
2023-04-18T23:37:45.494Z,7.81
2023-04-18T23:40:11.774Z,7.80
2023-04-18T23:42:37.938Z,7.77
2023-04-18T23:45:05.075Z,7.73
2023-04-18T23:47:31.456Z,7.68
2023-04-18T23:49:57.600Z,7.67
2023-04-18T23:52:23.645Z,7.68
2023-04-18T23:54:49.907Z,7.69
2023-04-18T23:57:16.029Z,7.72
2023-04-18T23:59:42.107Z,7.71
